createdAt,value
2023-01-10T00:00:11.109Z,56.40
2023-01-10T00:02:41.432Z,56.50
2023-01-10T00:05:11.847Z,56.10
2023-01-10T00:07:42.171Z,56.20
2023-01-10T00:10:13.237Z,56.20
2023-01-10T00:13:01.566Z,55.80
2023-01-10T00:15:34.431Z,55.90
2023-01-10T00:18:05.297Z,56.20
2023-01-10T00:20:36.090Z,56.00
2023-01-10T00:23:06.448Z,55.90
2023-01-10T00:25:37.789Z,56.00
2023-01-10T00:28:20.076Z,56.10
2023-01-10T00:31:02.702Z,56.10
2023-01-10T00:33:34.088Z,56.00
2023-01-10T00:36:05.337Z,56.10
2023-01-10T00:38:37.342Z,56.10
2023-01-10T00:41:29.834Z,56.10
2023-01-10T00:44:00.154Z,56.20
2023-01-10T00:46:30.584Z,56.40
2023-01-10T00:49:01.020Z,56.40
2023-01-10T00:51:31.202Z,56.40
2023-01-10T00:54:01.469Z,56.40
2023-01-10T00:56:31.809Z,56.40
2023-01-10T00:59:02.092Z,56.20
2023-01-10T01:01:32.535Z,56.10
2023-01-10T01:04:02.829Z,56.10
2023-01-10T01:06:33.085Z,56.20
2023-01-10T01:09:03.370Z,56.00
2023-01-10T01:11:33.604Z,55.70
2023-01-10T01:14:03.996Z,55.60
2023-01-10T01:16:34.330Z,55.20
2023-01-10T01:19:04.624Z,55.00
2023-01-10T01:21:34.817Z,55.00
2023-01-10T01:24:05.101Z,55.00
2023-01-10T01:26:36.951Z,54.70
2023-01-10T01:29:07.120Z,54.50
2023-01-10T01:31:37.400Z,54.30
2023-01-10T01:34:08.025Z,54.30
2023-01-10T01:36:38.330Z,54.20
2023-01-10T01:39:08.562Z,54.10
2023-01-10T01:41:56.535Z,54.00
2023-01-10T01:44:31.474Z,54.10
2023-01-10T01:47:30.080Z,54.30
2023-01-10T01:50:00.566Z,54.10
2023-01-10T01:52:36.319Z,54.10
2023-01-10T01:55:07.581Z,53.90
2023-01-10T01:57:38.753Z,53.60
2023-01-10T02:00:09.684Z,53.40
2023-01-10T02:03:01.210Z,53.40
2023-01-10T02:05:34.510Z,53.40
2023-01-10T02:08:05.475Z,53.80
2023-01-10T02:10:46.781Z,53.90
2023-01-10T02:13:20.552Z,54.20
2023-01-10T02:15:50.845Z,54.10
2023-01-10T02:18:23.217Z,54.20
2023-01-10T02:21:08.337Z,54.30
2023-01-10T02:23:59.361Z,54.50
2023-01-10T02:27:00.762Z,54.70
2023-01-10T02:30:01.816Z,54.70
2023-01-10T02:32:45.740Z,54.90
2023-01-10T02:35:35.840Z,55.00
2023-01-10T02:38:35.454Z,55.00
2023-01-10T02:41:33.684Z,55.00
2023-01-10T02:44:15.161Z,55.10
2023-01-10T02:46:48.826Z,55.40
2023-01-10T02:49:19.159Z,55.40
2023-01-10T02:51:51.719Z,55.40
2023-01-10T02:54:25.582Z,55.30
2023-01-10T02:57:20.182Z,55.10
2023-01-10T02:59:56.507Z,54.90
2023-01-10T03:03:10.526Z,55.10
2023-01-10T03:05:55.956Z,55.30
2023-01-10T03:08:44.138Z,55.30
2023-01-10T03:11:15.153Z,55.30
2023-01-10T03:13:51.340Z,55.30
2023-01-10T03:16:30.647Z,55.20
2023-01-10T03:19:19.343Z,55.00
2023-01-10T03:21:55.345Z,55.00
2023-01-10T03:24:51.691Z,55.00
2023-01-10T03:27:51.904Z,54.90
2023-01-10T03:30:34.025Z,54.90
2023-01-10T03:33:04.938Z,55.00
2023-01-10T03:35:47.002Z,55.00
2023-01-10T03:38:37.151Z,55.30
2023-01-10T03:41:33.750Z,55.30
2023-01-10T03:44:39.370Z,55.30
2023-01-10T03:47:15.792Z,55.50
2023-01-10T03:49:49.920Z,55.50
2023-01-10T03:52:22.724Z,55.40
2023-01-10T03:54:55.584Z,55.30
2023-01-10T03:57:27.071Z,55.20
2023-01-10T04:00:01.278Z,55.20
2023-01-10T04:02:33.440Z,55.20
2023-01-10T04:05:03.712Z,55.30
2023-01-10T04:07:33.960Z,55.40
2023-01-10T04:10:04.345Z,55.40
2023-01-10T04:12:34.849Z,55.50
2023-01-10T04:15:05.259Z,55.60
2023-01-10T04:17:35.575Z,55.70
2023-01-10T04:20:06.032Z,55.70
2023-01-10T04:22:36.301Z,55.60
2023-01-10T04:25:06.694Z,55.50
2023-01-10T04:27:36.942Z,55.50
2023-01-10T04:30:08.082Z,55.60
2023-01-10T04:32:38.373Z,55.60
2023-01-10T04:35:09.214Z,55.60
2023-01-10T04:37:39.844Z,55.60
2023-01-10T04:40:10.945Z,55.60
2023-01-10T04:42:41.233Z,55.60
2023-01-10T04:45:13.536Z,55.50
2023-01-10T04:47:43.772Z,55.30
2023-01-10T04:50:14.276Z,55.10
2023-01-10T04:52:45.164Z,54.90
2023-01-10T04:55:15.480Z,54.70
2023-01-10T04:57:45.910Z,54.60
2023-01-10T05:00:16.408Z,54.30
2023-01-10T05:02:46.744Z,54.10
2023-01-10T05:05:17.414Z,54.10
2023-01-10T05:07:49.237Z,54.10
2023-01-10T05:10:20.156Z,54.40
2023-01-10T05:12:50.425Z,54.50
2023-01-10T05:15:22.909Z,54.60
2023-01-10T05:17:59.411Z,54.80
2023-01-10T05:20:30.072Z,55.00
2023-01-10T05:23:00.329Z,55.00
2023-01-10T05:25:31.149Z,55.00
2023-01-10T05:28:01.559Z,55.10
2023-01-10T05:30:31.908Z,55.10
2023-01-10T05:33:02.138Z,55.10
2023-01-10T05:35:32.489Z,55.10
2023-01-10T05:38:02.757Z,55.20
2023-01-10T05:40:33.075Z,55.10
2023-01-10T05:43:03.372Z,55.20
2023-01-10T05:45:33.945Z,55.30
2023-01-10T05:48:04.225Z,55.20
2023-01-10T05:50:34.586Z,55.00
2023-01-10T05:53:07.453Z,54.80
2023-01-10T05:55:37.825Z,54.80
2023-01-10T05:58:08.175Z,54.80
2023-01-10T06:00:38.489Z,54.80
2023-01-10T06:03:08.987Z,54.80
2023-01-10T06:05:39.615Z,54.70
2023-01-10T06:08:10.040Z,54.70
2023-01-10T06:10:42.160Z,54.80
2023-01-10T06:13:13.797Z,54.60
2023-01-10T06:15:44.625Z,54.60
2023-01-10T06:18:14.997Z,54.50
2023-01-10T06:20:46.495Z,54.60
2023-01-10T06:23:16.930Z,54.50
2023-01-10T06:25:47.715Z,54.20
2023-01-10T06:28:17.972Z,54.20
2023-01-10T06:30:48.271Z,54.00
2023-01-10T06:33:19.409Z,53.90
2023-01-10T06:35:50.159Z,53.70
2023-01-10T06:38:29.246Z,53.70
2023-01-10T06:40:59.643Z,53.50
2023-01-10T06:43:29.839Z,53.40
2023-01-10T06:46:00.098Z,53.20
2023-01-10T06:48:30.329Z,53.00
2023-01-10T06:51:00.783Z,52.70
2023-01-10T06:53:31.051Z,52.80
2023-01-10T06:56:01.886Z,52.60
2023-01-10T06:58:32.478Z,52.40
2023-01-10T07:01:03.066Z,52.40
2023-01-10T07:03:33.514Z,52.40
2023-01-10T07:06:05.408Z,52.60
2023-01-10T07:08:35.732Z,52.40
2023-01-10T07:11:06.075Z,52.50
2023-01-10T07:13:36.826Z,52.50
2023-01-10T07:16:12.262Z,52.50
2023-01-10T07:18:44.494Z,52.60
2023-01-10T07:21:15.924Z,52.50
2023-01-10T07:23:46.206Z,52.40
2023-01-10T07:26:19.386Z,52.50
2023-01-10T07:28:52.658Z,52.50
2023-01-10T07:31:25.526Z,52.40
2023-01-10T07:33:55.982Z,52.50
2023-01-10T07:36:26.483Z,52.50
2023-01-10T07:38:57.226Z,52.50
2023-01-10T07:41:27.546Z,52.60
2023-01-10T07:43:57.826Z,52.70
2023-01-10T07:46:28.428Z,52.80
2023-01-10T07:48:58.686Z,52.90
2023-01-10T07:51:29.028Z,53.00
2023-01-10T07:53:59.291Z,53.00
2023-01-10T07:56:29.590Z,53.10
2023-01-10T07:58:59.899Z,53.20
2023-01-10T08:01:31.277Z,53.40
2023-01-10T08:04:01.657Z,53.60
2023-01-10T08:06:32.127Z,53.50
2023-01-10T08:09:02.481Z,53.50
2023-01-10T08:11:32.893Z,53.40
2023-01-10T08:14:03.168Z,53.40
2023-01-10T08:16:33.388Z,53.40
2023-01-10T08:19:03.550Z,53.40
2023-01-10T08:21:33.887Z,53.40
2023-01-10T08:24:04.183Z,53.70
2023-01-10T08:26:34.398Z,53.80
2023-01-10T08:29:04.847Z,53.80
2023-01-10T08:31:35.133Z,53.80
2023-01-10T08:34:06.236Z,53.70
2023-01-10T08:36:37.546Z,53.60
2023-01-10T08:39:11.284Z,53.60
2023-01-10T08:41:42.924Z,53.70
2023-01-10T08:44:15.834Z,53.70
2023-01-10T08:46:47.712Z,53.70
2023-01-10T08:49:18.817Z,53.70
2023-01-10T08:51:49.860Z,53.80
2023-01-10T08:54:20.891Z,53.70
2023-01-10T08:56:52.055Z,53.70
2023-01-10T08:59:23.240Z,53.70
2023-01-10T09:01:54.717Z,53.60
2023-01-10T09:04:25.237Z,53.50
2023-01-10T09:06:55.929Z,53.50
2023-01-10T09:09:27.261Z,53.50
2023-01-10T09:11:59.398Z,53.40
2023-01-10T09:14:30.501Z,53.50
2023-01-10T09:17:01.573Z,53.40
2023-01-10T09:19:32.731Z,53.50
2023-01-10T09:22:03.385Z,53.50
2023-01-10T09:24:35.464Z,53.40
2023-01-10T09:27:06.874Z,53.40
2023-01-10T09:29:39.066Z,53.40
2023-01-10T09:32:10.848Z,53.40
2023-01-10T09:34:42.655Z,53.40
2023-01-10T09:37:14.305Z,54.00
2023-01-10T09:39:45.390Z,53.20
2023-01-10T09:42:24.134Z,53.30
2023-01-10T09:45:18.157Z,53.30
2023-01-10T09:47:58.534Z,53.10
2023-01-10T09:50:47.357Z,53.20
2023-01-10T09:53:27.104Z,53.20
2023-01-10T09:56:01.991Z,53.30
2023-01-10T09:58:37.252Z,53.20
2023-01-10T10:01:18.313Z,53.20
2023-01-10T10:04:23.267Z,53.20
2023-01-10T10:06:54.475Z,53.20
2023-01-10T10:09:33.938Z,53.30
2023-01-10T10:12:25.197Z,53.40
2023-01-10T10:15:10.723Z,53.40
2023-01-10T10:17:46.212Z,53.30
2023-01-10T10:20:28.851Z,53.30
2023-01-10T10:23:11.366Z,53.40
2023-01-10T10:25:50.013Z,53.40
2023-01-10T10:28:58.015Z,53.30
2023-01-10T10:32:00.060Z,53.30
2023-01-10T10:34:46.421Z,53.50
2023-01-10T10:37:51.793Z,53.50
2023-01-10T10:40:30.801Z,53.60
2023-01-10T10:43:06.341Z,53.70
2023-01-10T10:45:46.571Z,53.70
2023-01-10T10:48:36.518Z,53.80
2023-01-10T10:51:17.912Z,53.90
2023-01-10T10:53:49.943Z,53.90
2023-01-10T10:56:24.920Z,53.90
2023-01-10T10:58:57.973Z,53.90
2023-01-10T11:01:28.969Z,54.00
2023-01-10T11:04:14.312Z,54.00
2023-01-10T11:06:54.522Z,54.00
2023-01-10T11:09:30.981Z,54.00
2023-01-10T11:12:03.341Z,54.10
2023-01-10T11:14:51.797Z,54.10
2023-01-10T11:17:28.627Z,54.10
2023-01-10T11:20:00.094Z,54.20
2023-01-10T11:22:52.995Z,54.30
2023-01-10T11:25:25.245Z,54.30
2023-01-10T11:28:09.770Z,54.30
2023-01-10T11:30:41.478Z,54.40
2023-01-10T11:33:27.970Z,54.40
2023-01-10T11:36:17.198Z,54.40
2023-01-10T11:39:05.883Z,54.40
2023-01-10T11:41:36.241Z,54.40
2023-01-10T11:44:41.506Z,54.50
2023-01-10T11:47:17.316Z,54.50
2023-01-10T11:49:47.604Z,54.60
2023-01-10T11:52:29.257Z,54.60
2023-01-10T11:55:03.201Z,54.60
2023-01-10T11:57:35.335Z,54.60
2023-01-10T12:00:11.099Z,54.60
2023-01-10T12:02:46.468Z,54.60
2023-01-10T12:05:23.568Z,54.70
2023-01-10T12:08:29.195Z,54.60
2023-01-10T12:11:03.535Z,54.60
2023-01-10T12:13:47.617Z,54.70
2023-01-10T12:16:30.348Z,54.70
2023-01-10T12:19:06.708Z,54.80
2023-01-10T12:21:45.598Z,54.80
2023-01-10T12:24:30.475Z,54.80
2023-01-10T12:27:02.075Z,54.80
2023-01-10T12:29:51.944Z,54.90
2023-01-10T12:32:31.021Z,54.80
2023-01-10T12:35:06.725Z,54.90
2023-01-10T12:37:47.744Z,54.90
2023-01-10T12:40:27.969Z,54.90
2023-01-10T12:43:42.549Z,54.90
2023-01-10T12:46:52.973Z,55.00
2023-01-10T12:49:35.012Z,55.00
2023-01-10T12:52:13.397Z,55.00
2023-01-10T12:54:43.670Z,55.00
2023-01-10T12:57:28.265Z,55.00
2023-01-10T13:00:02.912Z,55.00
2023-01-10T13:02:47.007Z,55.00
2023-01-10T13:05:35.050Z,55.00
2023-01-10T13:08:32.793Z,55.00
2023-01-10T13:11:04.775Z,55.00
2023-01-10T13:13:39.341Z,55.20
2023-01-10T13:16:18.608Z,55.10
2023-01-10T13:19:05.625Z,55.20
2023-01-10T13:21:37.455Z,55.20
2023-01-10T13:24:30.623Z,55.30
2023-01-10T13:27:04.063Z,55.30
2023-01-10T13:29:43.074Z,55.30
2023-01-10T13:32:29.201Z,55.30
2023-01-10T13:35:17.104Z,55.40
2023-01-10T13:37:54.503Z,55.40
2023-01-10T13:40:32.534Z,55.50
2023-01-10T13:43:58.885Z,55.50
2023-01-10T13:46:29.240Z,55.40
2023-01-10T13:49:01.949Z,55.50
2023-01-10T13:51:37.832Z,55.40
2023-01-10T13:54:20.400Z,55.40
2023-01-10T13:56:50.681Z,55.50
2023-01-10T13:59:47.867Z,55.50
2023-01-10T14:02:31.085Z,55.50
2023-01-10T14:05:12.680Z,55.50
2023-01-10T14:07:56.632Z,55.60
2023-01-10T14:10:34.930Z,55.60
2023-01-10T14:13:23.307Z,55.60
2023-01-10T14:15:54.688Z,55.60
2023-01-10T14:18:40.485Z,55.60
2023-01-10T14:21:12.319Z,55.50
2023-01-10T14:23:46.121Z,55.60
2023-01-10T14:26:28.793Z,55.60
2023-01-10T14:28:59.589Z,55.50
2023-01-10T14:31:30.438Z,55.60
2023-01-10T14:34:04.581Z,55.60
2023-01-10T14:36:51.255Z,55.70
2023-01-10T14:39:23.479Z,55.60
2023-01-10T14:41:58.501Z,55.70
2023-01-10T14:44:48.979Z,55.70
2023-01-10T14:47:37.438Z,55.60
2023-01-10T14:50:08.549Z,55.70
2023-01-10T14:52:38.878Z,55.70
2023-01-10T14:55:24.256Z,55.70
2023-01-10T14:57:58.934Z,55.70
2023-01-10T15:00:32.510Z,55.70
2023-01-10T15:03:05.839Z,55.70
2023-01-10T15:05:47.128Z,55.70
2023-01-10T15:08:23.077Z,55.70
2023-01-10T15:11:01.891Z,55.70
2023-01-10T15:13:35.593Z,55.70
2023-01-10T15:16:07.247Z,55.80
2023-01-10T15:18:48.005Z,55.80
2023-01-10T15:21:21.279Z,55.70
2023-01-10T15:23:52.333Z,55.80
2023-01-10T15:26:24.521Z,55.70
2023-01-10T15:29:25.707Z,55.80
2023-01-10T15:31:59.688Z,55.70
2023-01-10T15:34:32.446Z,55.90
2023-01-10T15:37:04.161Z,55.80
2023-01-10T15:39:41.589Z,55.80
2023-01-10T15:42:14.296Z,55.90
2023-01-10T15:44:54.235Z,55.90
2023-01-10T15:47:54.470Z,55.80
2023-01-10T15:50:43.197Z,55.80
2023-01-10T15:53:19.750Z,55.90
2023-01-10T15:56:10.988Z,55.90
2023-01-10T15:58:45.146Z,55.90
2023-01-10T16:01:19.177Z,56.00
2023-01-10T16:03:59.727Z,56.00
2023-01-10T16:06:34.120Z,56.00
2023-01-10T16:09:10.511Z,56.00
2023-01-10T16:12:09.594Z,56.00
2023-01-10T16:14:40.335Z,56.00
2023-01-10T16:17:10.813Z,56.00
2023-01-10T16:19:41.312Z,55.90
2023-01-10T16:22:17.259Z,56.00
2023-01-10T16:24:49.146Z,55.90
2023-01-10T16:27:19.418Z,56.50
2023-01-10T16:29:49.632Z,55.90
2023-01-10T16:32:20.022Z,55.90
2023-01-10T16:34:50.538Z,55.90
2023-01-10T16:37:20.777Z,55.90
2023-01-10T16:39:50.999Z,55.90
2023-01-10T16:42:39.598Z,55.90
2023-01-10T16:45:10.561Z,55.90
2023-01-10T16:47:41.038Z,55.90
2023-01-10T16:50:13.615Z,55.90
2023-01-10T16:52:43.959Z,55.90
2023-01-10T16:55:23.965Z,55.90
2023-01-10T16:57:54.862Z,55.90
2023-01-10T17:00:25.498Z,55.90
2023-01-10T17:02:55.951Z,55.90
2023-01-10T17:05:26.313Z,55.90
2023-01-10T17:07:56.879Z,55.90
2023-01-10T17:10:27.359Z,55.90
2023-01-10T17:12:57.755Z,55.90
2023-01-10T17:15:28.103Z,55.90
2023-01-10T17:17:59.019Z,55.90
2023-01-10T17:20:29.807Z,55.90
2023-01-10T17:23:00.611Z,55.90
2023-01-10T17:25:30.786Z,55.90
2023-01-10T17:28:01.012Z,55.90
2023-01-10T17:30:31.231Z,56.00
2023-01-10T17:33:01.434Z,55.90
2023-01-10T17:35:34.174Z,56.00
2023-01-10T17:38:04.410Z,56.00
2023-01-10T17:40:34.686Z,56.00
2023-01-10T17:43:04.917Z,56.00
2023-01-10T17:45:35.190Z,56.00
2023-01-10T17:48:05.440Z,56.00
2023-01-10T17:50:35.868Z,56.00
2023-01-10T17:53:06.150Z,56.00
2023-01-10T17:55:36.362Z,56.00
2023-01-10T17:58:06.666Z,56.00
2023-01-10T18:00:36.877Z,56.10
2023-01-10T18:03:07.645Z,56.10
2023-01-10T18:05:38.356Z,56.10
2023-01-10T18:08:09.748Z,56.10
2023-01-10T18:10:39.985Z,56.10
2023-01-10T18:13:12.158Z,56.10
2023-01-10T18:15:53.961Z,56.10
2023-01-10T18:18:26.758Z,56.10
2023-01-10T18:20:59.739Z,56.20
2023-01-10T18:23:32.324Z,56.20
2023-01-10T18:26:03.807Z,56.10
2023-01-10T18:28:42.066Z,56.10
2023-01-10T18:31:17.566Z,56.10
2023-01-10T18:33:49.571Z,56.20
2023-01-10T18:36:22.996Z,56.20
2023-01-10T18:38:54.277Z,56.20
2023-01-10T18:41:24.607Z,56.20
2023-01-10T18:43:54.787Z,56.20
2023-01-10T18:46:26.780Z,56.20
2023-01-10T18:48:57.046Z,56.20
2023-01-10T18:51:27.308Z,56.20
2023-01-10T18:53:57.542Z,56.20
2023-01-10T18:56:27.844Z,56.20
2023-01-10T18:59:00.454Z,56.90
2023-01-10T19:01:32.158Z,56.30
2023-01-10T19:04:05.916Z,57.00
2023-01-10T19:06:36.197Z,56.40
2023-01-10T19:09:06.877Z,56.40
2023-01-10T19:11:37.294Z,56.30
2023-01-10T19:14:08.309Z,56.30
2023-01-10T19:16:38.772Z,56.30
2023-01-10T19:19:11.022Z,56.30
2023-01-10T19:21:41.676Z,56.40
2023-01-10T19:24:29.192Z,56.40
2023-01-10T19:26:59.905Z,56.30
2023-01-10T19:29:32.243Z,56.40
2023-01-10T19:32:05.637Z,56.30
2023-01-10T19:34:36.267Z,56.30
2023-01-10T19:37:06.560Z,56.40
2023-01-10T19:39:40.931Z,56.40
2023-01-10T19:42:11.233Z,56.40
2023-01-10T19:44:41.582Z,56.50
2023-01-10T19:47:13.317Z,56.40
2023-01-10T19:49:43.864Z,56.40
2023-01-10T19:52:14.106Z,56.40
2023-01-10T19:54:44.419Z,56.40
2023-01-10T19:57:14.621Z,56.40
2023-01-10T19:59:46.930Z,56.40
2023-01-10T20:02:17.126Z,54.80
2023-01-10T20:04:47.727Z,53.90
2023-01-10T20:07:18.788Z,53.60
2023-01-10T20:09:49.204Z,53.80
2023-01-10T20:12:19.447Z,53.80
2023-01-10T20:14:50.590Z,53.90
2023-01-10T20:17:21.790Z,54.00
2023-01-10T20:19:52.531Z,53.80
2023-01-10T20:22:23.675Z,53.70
2023-01-10T20:24:54.022Z,53.70
2023-01-10T20:27:24.320Z,53.90
2023-01-10T20:29:54.679Z,53.90
2023-01-10T20:32:26.577Z,53.90
2023-01-10T20:34:56.795Z,53.90
2023-01-10T20:37:27.062Z,53.90
2023-01-10T20:39:57.345Z,54.10
2023-01-10T20:42:27.703Z,54.10
2023-01-10T20:45:10.945Z,54.20
2023-01-10T20:47:41.341Z,54.20
2023-01-10T20:50:12.311Z,54.40
2023-01-10T20:52:42.583Z,54.30
2023-01-10T20:55:12.948Z,54.50
2023-01-10T20:57:43.168Z,54.50
2023-01-10T21:00:14.041Z,54.50
2023-01-10T21:02:44.352Z,54.50
2023-01-10T21:05:14.655Z,54.60
2023-01-10T21:07:44.939Z,54.70
2023-01-10T21:10:15.247Z,54.60
2023-01-10T21:12:45.557Z,54.60
2023-01-10T21:15:16.093Z,54.70
2023-01-10T21:17:46.296Z,54.70
2023-01-10T21:20:16.589Z,54.70
2023-01-10T21:22:48.344Z,54.70
2023-01-10T21:25:18.736Z,54.70
2023-01-10T21:27:49.096Z,54.60
2023-01-10T21:30:22.590Z,54.70
2023-01-10T21:32:52.816Z,54.80
2023-01-10T21:35:23.022Z,54.80
2023-01-10T21:37:53.220Z,54.80
2023-01-10T21:40:23.516Z,54.90
2023-01-10T21:42:54.279Z,55.00
2023-01-10T21:45:25.391Z,55.00
2023-01-10T21:47:55.665Z,55.00
2023-01-10T21:50:26.122Z,55.20
2023-01-10T21:52:56.305Z,55.30
2023-01-10T21:55:26.476Z,55.40
2023-01-10T21:57:56.861Z,55.30
2023-01-10T22:00:27.399Z,55.40
2023-01-10T22:02:59.440Z,55.30
2023-01-10T22:05:30.046Z,55.40
2023-01-10T22:08:00.417Z,55.40
2023-01-10T22:10:31.870Z,55.50
2023-01-10T22:13:02.363Z,55.70
2023-01-10T22:15:32.585Z,55.90
2023-01-10T22:18:03.014Z,55.90
2023-01-10T22:20:33.321Z,55.90
2023-01-10T22:23:03.669Z,56.00
2023-01-10T22:25:33.891Z,55.60
2023-01-10T22:28:04.355Z,55.70
2023-01-10T22:30:34.838Z,55.70
2023-01-10T22:33:05.216Z,55.70
2023-01-10T22:35:35.939Z,55.60
2023-01-10T22:38:06.303Z,55.60
2023-01-10T22:40:38.122Z,55.60
2023-01-10T22:43:08.538Z,55.90
2023-01-10T22:45:42.163Z,56.00
2023-01-10T22:48:13.146Z,56.00
2023-01-10T22:50:53.266Z,56.00
2023-01-10T22:53:23.646Z,55.80
2023-01-10T22:55:53.890Z,56.00
2023-01-10T22:58:24.786Z,56.40
2023-01-10T23:00:55.053Z,56.00
2023-01-10T23:03:25.562Z,56.20
2023-01-10T23:05:59.826Z,56.30
2023-01-10T23:08:33.422Z,56.10
2023-01-10T23:11:07.773Z,56.10
2023-01-10T23:13:38.710Z,56.10
2023-01-10T23:16:11.317Z,56.20
2023-01-10T23:18:41.813Z,56.20
2023-01-10T23:21:12.364Z,56.40
2023-01-10T23:23:42.734Z,56.20
2023-01-10T23:26:15.192Z,56.30
2023-01-10T23:28:49.090Z,56.20
2023-01-10T23:31:22.133Z,56.10
2023-01-10T23:33:53.624Z,56.20
2023-01-10T23:36:25.384Z,56.20
2023-01-10T23:38:55.593Z,56.20
2023-01-10T23:41:26.326Z,56.30
2023-01-10T23:43:56.657Z,56.30
2023-01-10T23:46:26.842Z,56.40
2023-01-10T23:48:57.123Z,56.40
2023-01-10T23:51:27.865Z,56.40
2023-01-10T23:53:58.178Z,56.40
2023-01-10T23:56:28.403Z,56.50
2023-01-10T23:58:58.679Z,56.50
